sensor_id;sensor_type;location;lat;lon;timestamp;pressure;altitude;pressure_sealevel;temperature;humidity
70304;BME280;57712;48.752;11.348;2023-06-19T00:01:38;97165.53;;;19.49;100.00
70304;BME280;57712;48.752;11.348;2023-06-19T00:04:05;97156.91;;;19.47;100.00
70304;BME280;57712;48.752;11.348;2023-06-19T00:06:31;97158.72;;;19.50;100.00
70304;BME280;57712;48.752;11.348;2023-06-19T00:08:58;97164.00;;;19.48;100.00
70304;BME280;57712;48.752;11.348;2023-06-19T00:11:25;97157.63;;;19.42;100.00
70304;BME280;57712;48.752;11.348;2023-06-19T00:13:52;97159.00;;;19.52;100.00
70304;BME280;57712;48.752;11.348;2023-06-19T00:16:18;97157.47;;;19.51;100.00
70304;BME280;57712;48.752;11.348;2023-06-19T00:18:46;97163.03;;;19.51;100.00
70304;BME280;57712;48.752;11.348;2023-06-19T00:21:13;97159.13;;;19.43;100.00
70304;BME280;57712;48.752;11.348;2023-06-19T00:23:39;97148.31;;;19.45;100.00
70304;BME280;57712;48.752;11.348;2023-06-19T00:26:06;97152.88;;;19.48;100.00
70304;BME280;57712;48.752;11.348;2023-06-19T00:28:33;97152.34;;;19.44;100.00
70304;BME280;57712;48.752;11.348;2023-06-19T00:31:00;97151.34;;;19.47;100.00
70304;BME280;57712;48.752;11.348;2023-06-19T00:33:26;97153.25;;;19.56;100.00
70304;BME280;57712;48.752;11.348;2023-06-19T00:35:53;97153.31;;;19.41;100.00
70304;BME280;57712;48.752;11.348;2023-06-19T00:38:21;97147.31;;;19.48;100.00
70304;BME280;57712;48.752;11.348;2023-06-19T00:40:48;97152.69;;;19.52;100.00
70304;BME280;57712;48.752;11.348;2023-06-19T00:43:14;97153.84;;;19.45;100.00
70304;BME280;57712;48.752;11.348;2023-06-19T00:45:41;97156.78;;;19.36;100.00
70304;BME280;57712;48.752;11.348;2023-06-19T00:48:08;97152.88;;;19.48;100.00
70304;BME280;57712;48.752;11.348;2023-06-19T00:50:35;97151.97;;;19.37;100.00
70304;BME280;57712;48.752;11.348;2023-06-19T00:53:03;97156.59;;;19.40;100.00
70304;BME280;57712;48.752;11.348;2023-06-19T00:55:32;97152.88;;;19.48;100.00
70304;BME280;57712;48.752;11.348;2023-06-19T00:58:00;97160.13;;;19.20;100.00
70304;BME280;57712;48.752;11.348;2023-06-19T01:00:27;97150.44;;;19.36;100.00
70304;BME280;57712;48.752;11.348;2023-06-19T01:02:54;97157.97;;;19.29;100.00
70304;BME280;57712;48.752;11.348;2023-06-19T01:05:20;97161.78;;;19.32;100.00
70304;BME280;57712;48.752;11.348;2023-06-19T01:10:46;97162.91;;;19.40;100.00
70304;BME280;57712;48.752;11.348;2023-06-19T01:13:28;97167.47;;;19.43;100.00
70304;BME280;57712;48.752;11.348;2023-06-19T01:15:58;97166.72;;;19.43;100.00
70304;BME280;57712;48.752;11.348;2023-06-19T01:18:25;97169.00;;;19.44;100.00
70304;BME280;57712;48.752;11.348;2023-06-19T01:20:53;97174.91;;;19.52;100.00
70304;BME280;57712;48.752;11.348;2023-06-19T01:23:22;97175.09;;;19.48;100.00
70304;BME280;57712;48.752;11.348;2023-06-19T01:25:49;97183.16;;;19.46;100.00
70304;BME280;57712;48.752;11.348;2023-06-19T01:28:15;97183.44;;;19.48;100.00
70304;BME280;57712;48.752;11.348;2023-06-19T01:30:42;97200.81;;;19.43;100.00
70304;BME280;57712;48.752;11.348;2023-06-19T01:33:14;97190.53;;;19.49;100.00
70304;BME280;57712;48.752;11.348;2023-06-19T01:35:43;97193.03;;;19.47;100.00
70304;BME280;57712;48.752;11.348;2023-06-19T01:38:11;97189.00;;;19.48;100.00
70304;BME280;57712;48.752;11.348;2023-06-19T01:40:41;97189.69;;;19.43;100.00
70304;BME280;57712;48.752;11.348;2023-06-19T01:43:08;97190.06;;;19.51;100.00
70304;BME280;57712;48.752;11.348;2023-06-19T01:45:36;97184.59;;;19.56;100.00
70304;BME280;57712;48.752;11.348;2023-06-19T01:48:03;97188.88;;;19.57;100.00
70304;BME280;57712;48.752;11.348;2023-06-19T01:50:29;97194.16;;;19.55;100.00
70304;BME280;57712;48.752;11.348;2023-06-19T01:52:56;97191.78;;;19.48;100.00
70304;BME280;57712;48.752;11.348;2023-06-19T01:55:22;97194.44;;;19.57;100.00
70304;BME280;57712;48.752;11.348;2023-06-19T01:57:49;97197.13;;;19.52;100.00
70304;BME280;57712;48.752;11.348;2023-06-19T02:00:16;97197.22;;;19.57;100.00
70304;BME280;57712;48.752;11.348;2023-06-19T02:02:43;97193.31;;;19.49;100.00
70304;BME280;57712;48.752;11.348;2023-06-19T02:05:11;97196.09;;;19.49;100.00
70304;BME280;57712;48.752;11.348;2023-06-19T02:07:37;97195.25;;;19.43;100.00
70304;BME280;57712;48.752;11.348;2023-06-19T02:10:04;97192.97;;;19.42;100.00
70304;BME280;57712;48.752;11.348;2023-06-19T02:12:32;97184.91;;;19.44;100.00
70304;BME280;57712;48.752;11.348;2023-06-19T02:14:58;97190.88;;;19.37;100.00
70304;BME280;57712;48.752;11.348;2023-06-19T02:17:25;97185.53;;;19.33;100.00
70304;BME280;57712;48.752;11.348;2023-06-19T02:19:52;97189.56;;;19.32;100.00
70304;BME280;57712;48.752;11.348;2023-06-19T02:22:18;97179.97;;;19.33;100.00
70304;BME280;57712;48.752;11.348;2023-06-19T02:24:45;97178.59;;;19.43;100.00
70304;BME280;57712;48.752;11.348;2023-06-19T02:27:12;97181.63;;;19.45;100.00
70304;BME280;57712;48.752;11.348;2023-06-19T02:29:38;97172.34;;;19.28;100.00
70304;BME280;57712;48.752;11.348;2023-06-19T02:32:05;97183.38;;;19.22;100.00
70304;BME280;57712;48.752;11.348;2023-06-19T02:34:32;97178.19;;;19.30;100.00
70304;BME280;57712;48.752;11.348;2023-06-19T02:36:59;97180.25;;;19.35;100.00
70304;BME280;57712;48.752;11.348;2023-06-19T02:39:26;97181.34;;;19.23;100.00
70304;BME280;57712;48.752;11.348;2023-06-19T02:41:53;97176.50;;;19.18;100.00
70304;BME280;57712;48.752;11.348;2023-06-19T02:44:20;97179.09;;;19.07;100.00
70304;BME280;57712;48.752;11.348;2023-06-19T02:46:46;97171.22;;;19.20;100.00
70304;BME280;57712;48.752;11.348;2023-06-19T02:49:13;97177.72;;;19.17;100.00
70304;BME280;57712;48.752;11.348;2023-06-19T02:51:39;97189.97;;;19.25;100.00
70304;BME280;57712;48.752;11.348;2023-06-19T02:54:07;97185.88;;;19.20;100.00
70304;BME280;57712;48.752;11.348;2023-06-19T02:56:34;97189.97;;;19.25;100.00
70304;BME280;57712;48.752;11.348;2023-06-19T02:59:01;97192.06;;;19.30;100.00
70304;BME280;57712;48.752;11.348;2023-06-19T03:01:27;97192.06;;;19.30;100.00
70304;BME280;57712;48.752;11.348;2023-06-19T03:03:54;97199.16;;;19.31;100.00
70304;BME280;57712;48.752;11.348;2023-06-19T03:06:21;97202.91;;;19.28;100.00
70304;BME280;57712;48.752;11.348;2023-06-19T03:08:47;97206.06;;;19.21;100.00
70304;BME280;57712;48.752;11.348;2023-06-19T03:11:14;97200.13;;;19.28;100.00
70304;BME280;57712;48.752;11.348;2023-06-19T03:13:46;97201.16;;;19.30;100.00
70304;BME280;57712;48.752;11.348;2023-06-19T03:16:14;97201.91;;;19.31;100.00
70304;BME280;57712;48.752;11.348;2023-06-19T03:18:42;97204.00;;;19.36;100.00
70304;BME280;57712;48.752;11.348;2023-06-19T03:21:14;97203.44;;;19.32;100.00
70304;BME280;57712;48.752;11.348;2023-06-19T03:23:41;97207.53;;;19.37;100.00
70304;BME280;57712;48.752;11.348;2023-06-19T03:26:09;97214.44;;;19.41;100.00
70304;BME280;57712;48.752;11.348;2023-06-19T03:28:37;97217.69;;;19.40;100.00
70304;BME280;57712;48.752;11.348;2023-06-19T03:31:03;97216.72;;;19.43;100.00
70304;BME280;57712;48.752;11.348;2023-06-19T03:33:30;97225.53;;;19.41;100.00
70304;BME280;57712;48.752;11.348;2023-06-19T03:35:57;97232.03;;;19.38;100.00
70304;BME280;57712;48.752;11.348;2023-06-19T03:38:24;97236.66;;;19.41;100.00
70304;BME280;57712;48.752;11.348;2023-06-19T03:40:50;97237.59;;;19.38;100.00
70304;BME280;57712;48.752;11.348;2023-06-19T03:43:17;97232.63;;;19.42;100.00
70304;BME280;57712;48.752;11.348;2023-06-19T03:45:43;97234.25;;;19.49;100.00
70304;BME280;57712;48.752;11.348;2023-06-19T03:48:10;97236.22;;;19.48;100.00
70304;BME280;57712;48.752;11.348;2023-06-19T03:50:37;97245.91;;;19.53;100.00
70304;BME280;57712;48.752;11.348;2023-06-19T03:53:03;97245.34;;;19.49;100.00
70304;BME280;57712;48.752;11.348;2023-06-19T03:55:31;97246.78;;;19.44;100.00
70304;BME280;57712;48.752;11.348;2023-06-19T03:57:57;97252.63;;;19.46;100.00
70304;BME280;57712;48.752;11.348;2023-06-19T04:00:24;97253.09;;;19.45;100.00
70304;BME280;57712;48.752;11.348;2023-06-19T04:02:51;97253.31;;;19.41;100.00
70304;BME280;57712;48.752;11.348;2023-06-19T04:05:18;97258.44;;;19.28;100.00
70304;BME280;57712;48.752;11.348;2023-06-19T04:07:46;97263.16;;;19.22;100.00
70304;BME280;57712;48.752;11.348;2023-06-19T04:10:13;97261.84;;;19.02;100.00
70304;BME280;57712;48.752;11.348;2023-06-19T04:12:39;97264.88;;;19.19;100.00
70304;BME280;57712;48.752;11.348;2023-06-19T04:15:07;97266.72;;;19.08;100.00
70304;BME280;57712;48.752;11.348;2023-06-19T04:17:35;97259.81;;;19.18;100.00
70304;BME280;57712;48.752;11.348;2023-06-19T04:20:03;97262.09;;;19.19;100.00
70304;BME280;57712;48.752;11.348;2023-06-19T04:22:38;97255.66;;;19.28;100.00
70304;BME280;57712;48.752;11.348;2023-06-19T04:25:06;97259.13;;;19.23;100.00
70304;BME280;57712;48.752;11.348;2023-06-19T04:27:33;97264.63;;;19.38;100.00
70304;BME280;57712;48.752;11.348;2023-06-19T04:30:02;97270.28;;;19.43;100.00
70304;BME280;57712;48.752;11.348;2023-06-19T04:32:28;97267.63;;;19.54;100.00
70304;BME280;57712;48.752;11.348;2023-06-19T04:34:55;97270.00;;;19.41;100.00
70304;BME280;57712;48.752;11.348;2023-06-19T04:37:25;97261.94;;;19.43;100.00
70304;BME280;57712;48.752;11.348;2023-06-19T04:39:51;97261.81;;;19.52;100.00
70304;BME280;57712;48.752;11.348;2023-06-19T04:42:18;97272.25;;;19.57;100.00
70304;BME280;57712;48.752;11.348;2023-06-19T04:44:48;97276.69;;;19.49;100.00
70304;BME280;57712;48.752;11.348;2023-06-19T04:47:17;97280.06;;;19.39;100.00
70304;BME280;57712;48.752;11.348;2023-06-19T04:49:44;97287.00;;;19.64;100.00
70304;BME280;57712;48.752;11.348;2023-06-19T04:52:10;97313.69;;;19.26;100.00
70304;BME280;57712;48.752;11.348;2023-06-19T04:54:37;97326.19;;;19.01;100.00
70304;BME280;57712;48.752;11.348;2023-06-19T04:57:04;97330.69;;;18.98;100.00
70304;BME280;57712;48.752;11.348;2023-06-19T04:59:31;97323.09;;;19.14;100.00
70304;BME280;57712;48.752;11.348;2023-06-19T05:01:57;97329.03;;;19.21;100.00
70304;BME280;57712;48.752;11.348;2023-06-19T05:04:24;97317.59;;;19.34;100.00
70304;BME280;57712;48.752;11.348;2023-06-19T05:06:51;97320.56;;;19.45;100.00
70304;BME280;57712;48.752;11.348;2023-06-19T05:09:18;97311.38;;;19.39;100.00
70304;BME280;57712;48.752;11.348;2023-06-19T05:11:44;97309.84;;;19.38;100.00
70304;BME280;57712;48.752;11.348;2023-06-19T05:14:11;97314.59;;;19.52;100.00
70304;BME280;57712;48.752;11.348;2023-06-19T05:16:41;97311.56;;;19.50;100.00
70304;BME280;57712;48.752;11.348;2023-06-19T05:19:08;97315.47;;;19.58;100.00
70304;BME280;57712;48.752;11.348;2023-06-19T05:21:35;97316.59;;;19.67;100.00
70304;BME280;57712;48.752;11.348;2023-06-19T05:24:02;97317.28;;;19.62;100.00
70304;BME280;57712;48.752;11.348;2023-06-19T05:26:29;97311.72;;;19.62;100.00
70304;BME280;57712;48.752;11.348;2023-06-19T05:28:56;97317.59;;;19.84;100.00
70304;BME280;57712;48.752;11.348;2023-06-19T05:31:22;97315.84;;;19.86;100.00
70304;BME280;57712;48.752;11.348;2023-06-19T05:33:49;97339.13;;;20.09;100.00
70304;BME280;57712;48.752;11.348;2023-06-19T05:36:16;97336.75;;;20.63;100.00
70304;BME280;57712;48.752;11.348;2023-06-19T05:38:43;97335.91;;;21.09;100.00
70304;BME280;57712;48.752;11.348;2023-06-19T05:41:09;97324.53;;;21.81;100.00
70304;BME280;57712;48.752;11.348;2023-06-19T05:43:36;97338.72;;;22.26;100.00
70304;BME280;57712;48.752;11.348;2023-06-19T05:46:03;97338.97;;;22.28;100.00
70304;BME280;57712;48.752;11.348;2023-06-19T05:48:30;97340.03;;;22.36;100.00
70304;BME280;57712;48.752;11.348;2023-06-19T05:50:56;97341.59;;;22.48;100.00
70304;BME280;57712;48.752;11.348;2023-06-19T05:53:25;97337.50;;;22.33;100.00
70304;BME280;57712;48.752;11.348;2023-06-19T05:55:51;97344.38;;;22.48;100.00
70304;BME280;57712;48.752;11.348;2023-06-19T05:58:18;97336.66;;;23.09;100.00
70304;BME280;57712;48.752;11.348;2023-06-19T06:00:48;97345.25;;;22.88;100.00
70304;BME280;57712;48.752;11.348;2023-06-19T06:03:14;97342.00;;;23.35;100.00
70304;BME280;57712;48.752;11.348;2023-06-19T06:05:41;97343.75;;;23.77;100.00
70304;BME280;57712;48.752;11.348;2023-06-19T06:08:08;97346.53;;;23.54;100.00
70304;BME280;57712;48.752;11.348;2023-06-19T06:10:35;97344.50;;;23.72;91.50
70304;BME280;57712;48.752;11.348;2023-06-19T06:13:01;97343.75;;;23.77;89.54
70304;BME280;57712;48.752;11.348;2023-06-19T06:15:28;97350.34;;;23.74;86.69
70304;BME280;57712;48.752;11.348;2023-06-19T06:17:55;97362.06;;;23.72;88.72
70304;BME280;57712;48.752;11.348;2023-06-19T06:20:22;97364.59;;;23.65;95.69
70304;BME280;57712;48.752;11.348;2023-06-19T06:22:49;97364.09;;;23.38;87.70
70304;BME280;57712;48.752;11.348;2023-06-19T06:25:15;97367.91;;;23.41;100.00
70304;BME280;57712;48.752;11.348;2023-06-19T06:27:42;97370.19;;;23.31;81.78
70304;BME280;57712;48.752;11.348;2023-06-19T06:30:09;97375.78;;;23.25;85.57
70304;BME280;57712;48.752;11.348;2023-06-19T06:32:38;97383.66;;;23.21;88.35
70304;BME280;57712;48.752;11.348;2023-06-19T06:35:05;97390.53;;;23.37;90.16
70304;BME280;57712;48.752;11.348;2023-06-19T06:37:32;97392.06;;;23.16;86.40
70304;BME280;57712;48.752;11.348;2023-06-19T06:39:58;97383.66;;;23.21;85.94
70304;BME280;57712;48.752;11.348;2023-06-19T06:42:25;97384.94;;;23.48;89.42
70304;BME280;57712;48.752;11.348;2023-06-19T06:44:52;97390.81;;;23.61;95.99
70304;BME280;57712;48.752;11.348;2023-06-19T06:47:18;97393.34;;;23.48;100.00
70304;BME280;57712;48.752;11.348;2023-06-19T06:49:45;97393.09;;;23.69;90.17
70304;BME280;57712;48.752;11.348;2023-06-19T06:52:12;97401.22;;;23.55;99.48
70304;BME280;57712;48.752;11.348;2023-06-19T06:54:39;97408.84;;;23.49;97.43
70304;BME280;57712;48.752;11.348;2023-06-19T06:57:06;97408.84;;;23.72;90.05
70304;BME280;57712;48.752;11.348;2023-06-19T06:59:33;97403.28;;;23.60;90.50
70304;BME280;57712;48.752;11.348;2023-06-19T07:01:59;97399.44;;;23.75;86.76
70304;BME280;57712;48.752;11.348;2023-06-19T07:04:26;97408.78;;;24.05;95.66
70304;BME280;57712;48.752;11.348;2023-06-19T07:06:53;97415.97;;;23.84;100.00
70304;BME280;57712;48.752;11.348;2023-06-19T07:09:19;97413.41;;;23.97;92.10
70304;BME280;57712;48.752;11.348;2023-06-19T07:11:47;97417.75;;;23.98;93.74
70304;BME280;57712;48.752;11.348;2023-06-19T07:14:18;97417.69;;;24.32;93.13
70304;BME280;57712;48.752;11.348;2023-06-19T07:16:45;97419.44;;;24.35;95.52
70304;BME280;57712;48.752;11.348;2023-06-19T07:19:14;97413.59;;;24.22;91.85
70304;BME280;57712;48.752;11.348;2023-06-19T07:21:41;97411.69;;;24.63;93.52
70304;BME280;57712;48.752;11.348;2023-06-19T07:24:08;97416.41;;;24.22;89.63
70304;BME280;57712;48.752;11.348;2023-06-19T07:26:35;97419.91;;;24.50;90.33
70304;BME280;57712;48.752;11.348;2023-06-19T07:29:02;97428.81;;;24.48;80.05
70304;BME280;57712;48.752;11.348;2023-06-19T07:31:28;97421.69;;;25.06;79.83
70304;BME280;57712;48.752;11.348;2023-06-19T07:33:55;97424.22;;;25.09;96.45
70304;BME280;57712;48.752;11.348;2023-06-19T07:36:22;97429.63;;;24.90;86.30
70304;BME280;57712;48.752;11.348;2023-06-19T07:38:48;97429.38;;;24.36;88.92
70304;BME280;57712;48.752;11.348;2023-06-19T07:41:15;97432.69;;;24.23;84.58
70304;BME280;57712;48.752;11.348;2023-06-19T07:43:42;97442.13;;;24.03;83.31
70304;BME280;57712;48.752;11.348;2023-06-19T07:46:09;97439.09;;;24.01;87.47
70304;BME280;57712;48.752;11.348;2023-06-19T07:48:36;97444.97;;;23.92;90.81
70304;BME280;57712;48.752;11.348;2023-06-19T07:51:02;97441.38;;;23.52;94.00
70304;BME280;57712;48.752;11.348;2023-06-19T07:53:29;97440.13;;;23.76;97.91
70304;BME280;57712;48.752;11.348;2023-06-19T07:55:56;97442.88;;;23.31;96.90
70304;BME280;57712;48.752;11.348;2023-06-19T07:58:22;97449.41;;;22.94;100.00
70304;BME280;57712;48.752;11.348;2023-06-19T08:00:49;97457.03;;;22.99;100.00
70304;BME280;57712;48.752;11.348;2023-06-19T08:03:15;97459.91;;;23.16;100.00
70304;BME280;57712;48.752;11.348;2023-06-19T08:05:42;97457.53;;;22.87;100.00
70304;BME280;57712;48.752;11.348;2023-06-19T08:08:09;97461.31;;;22.84;100.00
70304;BME280;57712;48.752;11.348;2023-06-19T08:10:35;97462.53;;;22.77;100.00
70304;BME280;57712;48.752;11.348;2023-06-19T08:13:02;97471.16;;;22.79;100.00
70304;BME280;57712;48.752;11.348;2023-06-19T08:15:29;97468.38;;;22.79;100.00
70304;BME280;57712;48.752;11.348;2023-06-19T08:17:55;97472.69;;;22.80;100.00
70304;BME280;57712;48.752;11.348;2023-06-19T08:20:22;97475.38;;;23.12;100.00
70304;BME280;57712;48.752;11.348;2023-06-19T08:22:49;97475.63;;;23.08;98.85
70304;BME280;57712;48.752;11.348;2023-06-19T08:25:16;97468.75;;;23.03;98.18
70304;BME280;57712;48.752;11.348;2023-06-19T08:27:43;97476.91;;;23.24;100.00
70304;BME280;57712;48.752;11.348;2023-06-19T08:30:11;97473.94;;;23.55;94.90
70304;BME280;57712;48.752;11.348;2023-06-19T08:32:38;97480.56;;;23.64;96.03
70304;BME280;57712;48.752;11.348;2023-06-19T08:35:05;97473.97;;;23.89;94.20
70304;BME280;57712;48.752;11.348;2023-06-19T08:37:31;97468.34;;;24.00;92.66
70304;BME280;57712;48.752;11.348;2023-06-19T08:39:58;97468.81;;;24.27;98.11
70304;BME280;57712;48.752;11.348;2023-06-19T08:42:26;97470.38;;;24.39;92.97
70304;BME280;57712;48.752;11.348;2023-06-19T08:44:54;97468.84;;;24.32;91.99
70304;BME280;57712;48.752;11.348;2023-06-19T08:47:20;97464.66;;;24.67;100.00
70304;BME280;57712;48.752;11.348;2023-06-19T08:49:47;97471.56;;;25.18;99.04
70304;BME280;57712;48.752;11.348;2023-06-19T08:52:14;97478.47;;;25.17;92.35
70304;BME280;57712;48.752;11.348;2023-06-19T08:54:41;97480.03;;;25.13;93.63
70304;BME280;57712;48.752;11.348;2023-06-19T08:57:11;97479.09;;;25.40;98.11
70304;BME280;57712;48.752;11.348;2023-06-19T08:59:47;97474.53;;;25.31;93.58
70304;BME280;57712;48.752;11.348;2023-06-19T09:02:14;97474.81;;;25.69;91.52
70304;BME280;57712;48.752;11.348;2023-06-19T09:04:41;97471.06;;;25.91;94.85
70304;BME280;57712;48.752;11.348;2023-06-19T09:07:08;97466.13;;;25.73;89.17
70304;BME280;57712;48.752;11.348;2023-06-19T09:09:35;97457.66;;;26.08;95.58
70304;BME280;57712;48.752;11.348;2023-06-19T09:12:07;97463.34;;;26.52;89.28
70304;BME280;57712;48.752;11.348;2023-06-19T09:14:39;97463.44;;;26.89;85.13
70304;BME280;57712;48.752;11.348;2023-06-19T09:17:07;97456.81;;;26.43;81.51
70304;BME280;57712;48.752;11.348;2023-06-19T09:19:38;97465.44;;;26.21;76.69
70304;BME280;57712;48.752;11.348;2023-06-19T09:22:07;97460.16;;;26.42;70.30
70304;BME280;57712;48.752;11.348;2023-06-19T09:24:36;97465.34;;;26.57;84.87
70304;BME280;57712;48.752;11.348;2023-06-19T09:27:11;97464.78;;;26.34;80.64
70304;BME280;57712;48.752;11.348;2023-06-19T09:29:41;97463.69;;;26.67;89.61
70304;BME280;57712;48.752;11.348;2023-06-19T09:32:22;97461.88;;;27.64;79.80
70304;BME280;57712;48.752;11.348;2023-06-19T09:34:51;97462.84;;;27.85;80.97
70304;BME280;57712;48.752;11.348;2023-06-19T09:37:26;97459.50;;;27.17;77.30
70304;BME280;57712;48.752;11.348;2023-06-19T09:40:03;97460.97;;;27.55;82.73
70304;BME280;57712;48.752;11.348;2023-06-19T09:42:39;97465.84;;;26.80;77.07
70304;BME280;57712;48.752;11.348;2023-06-19T09:45:07;97462.78;;;26.59;78.05
70304;BME280;57712;48.752;11.348;2023-06-19T09:50:02;97455.31;;;27.04;77.75
70304;BME280;57712;48.752;11.348;2023-06-19T09:52:29;97451.13;;;27.30;73.97
70304;BME280;57712;48.752;11.348;2023-06-19T09:54:56;97456.41;;;26.77;74.49
70304;BME280;57712;48.752;11.348;2023-06-19T09:57:24;97459.47;;;27.54;81.08
70304;BME280;57712;48.752;11.348;2023-06-19T09:59:53;97459.47;;;27.73;81.31
70304;BME280;57712;48.752;11.348;2023-06-19T10:02:20;97455.97;;;27.48;83.68
70304;BME280;57712;48.752;11.348;2023-06-19T10:04:53;97448.22;;;27.36;83.24
70304;BME280;57712;48.752;11.348;2023-06-19T10:07:23;97450.41;;;27.11;70.24
70304;BME280;57712;48.752;11.348;2023-06-19T10:10:06;97462.41;;;27.11;76.21
70304;BME280;57712;48.752;11.348;2023-06-19T10:12:41;97461.72;;;26.62;76.54
70304;BME280;57712;48.752;11.348;2023-06-19T10:17:43;97457.03;;;26.45;72.54
70304;BME280;57712;48.752;11.348;2023-06-19T10:20:22;97463.03;;;26.98;77.87
70304;BME280;57712;48.752;11.348;2023-06-19T10:23:01;97467.38;;;27.75;83.49
70304;BME280;57712;48.752;11.348;2023-06-19T10:28:22;97457.19;;;26.96;70.01
70304;BME280;57712;48.752;11.348;2023-06-19T10:33:27;97452.03;;;27.38;79.54
70304;BME280;57712;48.752;11.348;2023-06-19T10:35:54;97453.69;;;27.66;77.07
70304;BME280;57712;48.752;11.348;2023-06-19T10:38:21;97449.31;;;27.32;74.07
70304;BME280;57712;48.752;11.348;2023-06-19T10:40:47;97452.63;;;26.93;73.75
70304;BME280;57712;48.752;11.348;2023-06-19T10:43:21;97440.19;;;26.89;74.33
70304;BME280;57712;48.752;11.348;2023-06-19T10:45:54;97438.03;;;26.76;71.28
70304;BME280;57712;48.752;11.348;2023-06-19T10:48:22;97437.88;;;26.87;81.47
70304;BME280;57712;48.752;11.348;2023-06-19T10:50:50;97437.28;;;27.32;79.26
70304;BME280;57712;48.752;11.348;2023-06-19T10:53:27;97434.84;;;26.85;69.73
70304;BME280;57712;48.752;11.348;2023-06-19T10:55:55;97438.53;;;27.50;73.68
70304;BME280;57712;48.752;11.348;2023-06-19T10:58:23;97441.69;;;27.09;75.19
70304;BME280;57712;48.752;11.348;2023-06-19T11:00:49;97434.09;;;27.41;69.31
70304;BME280;57712;48.752;11.348;2023-06-19T11:03:16;97438.91;;;27.59;71.12
70304;BME280;57712;48.752;11.348;2023-06-19T11:05:44;97437.16;;;27.75;72.18
70304;BME280;57712;48.752;11.348;2023-06-19T11:08:11;97433.78;;;27.77;79.61
70304;BME280;57712;48.752;11.348;2023-06-19T11:10:43;97426.03;;;27.32;69.16
70304;BME280;57712;48.752;11.348;2023-06-19T11:13:19;97418.56;;;26.97;70.28
70304;BME280;57712;48.752;11.348;2023-06-19T11:15:49;97421.25;;;27.27;84.54
70304;BME280;57712;48.752;11.348;2023-06-19T11:18:17;97416.31;;;26.95;79.08
70304;BME280;57712;48.752;11.348;2023-06-19T11:20:51;97411.25;;;27.13;78.99
70304;BME280;57712;48.752;11.348;2023-06-19T11:23:29;97405.81;;;27.33;78.31
70304;BME280;57712;48.752;11.348;2023-06-19T11:26:05;97408.34;;;27.50;79.26
70304;BME280;57712;48.752;11.348;2023-06-19T11:28:32;97422.31;;;27.75;82.85
70304;BME280;57712;48.752;11.348;2023-06-19T11:31:02;97413.47;;;27.84;70.91
70304;BME280;57712;48.752;11.348;2023-06-19T11:33:29;97401.34;;;28.02;73.30
70304;BME280;57712;48.752;11.348;2023-06-19T11:36:00;97397.47;;;28.18;76.38
70304;BME280;57712;48.752;11.348;2023-06-19T11:38:28;97398.75;;;28.17;84.44
70304;BME280;57712;48.752;11.348;2023-06-19T11:40:55;97404.59;;;27.93;65.73
70304;BME280;57712;48.752;11.348;2023-06-19T11:43:27;97391.16;;;28.12;70.09
70304;BME280;57712;48.752;11.348;2023-06-19T11:46:07;97389.97;;;28.08;64.80
70304;BME280;57712;48.752;11.348;2023-06-19T11:48:37;97393.59;;;28.35;71.54
70304;BME280;57712;48.752;11.348;2023-06-19T11:51:04;97394.88;;;28.47;70.43
70304;BME280;57712;48.752;11.348;2023-06-19T11:53:31;97392.25;;;28.23;68.39
70304;BME280;57712;48.752;11.348;2023-06-19T11:55:57;97382.69;;;28.65;71.81
70304;BME280;57712;48.752;11.348;2023-06-19T11:58:24;97380.75;;;28.21;74.25
70304;BME280;57712;48.752;11.348;2023-06-19T12:00:53;97381.22;;;28.38;65.02
70304;BME280;57712;48.752;11.348;2023-06-19T12:03:20;97376.66;;;28.08;67.72
70304;BME280;57712;48.752;11.348;2023-06-19T12:05:47;97382.94;;;28.14;65.54
70304;BME280;57712;48.752;11.348;2023-06-19T12:08:14;97385.53;;;27.99;72.53
70304;BME280;57712;48.752;11.348;2023-06-19T12:10:41;97380.66;;;28.00;65.60
70304;BME280;57712;48.752;11.348;2023-06-19T12:13:08;97388.38;;;28.26;67.32
70304;BME280;57712;48.752;11.348;2023-06-19T12:15:35;97382.09;;;28.33;65.38
70304;BME280;57712;48.752;11.348;2023-06-19T12:18:03;97376.44;;;28.06;68.93
70304;BME280;57712;48.752;11.348;2023-06-19T12:20:30;97371.09;;;29.16;63.61
70304;BME280;57712;48.752;11.348;2023-06-19T12:22:57;97373.09;;;29.92;61.31
70304;BME280;57712;48.752;11.348;2023-06-19T12:25:24;97376.25;;;30.81;63.04
70304;BME280;57712;48.752;11.348;2023-06-19T12:27:50;97375.22;;;31.07;53.21
70304;BME280;57712;48.752;11.348;2023-06-19T12:30:20;97373.84;;;31.82;55.92
70304;BME280;57712;48.752;11.348;2023-06-19T12:32:48;97371.28;;;30.02;52.25
70304;BME280;57712;48.752;11.348;2023-06-19T12:35:16;97362.06;;;30.30;53.00
70304;BME280;57712;48.752;11.348;2023-06-19T12:37:44;97368.16;;;29.84;57.98
70304;BME280;57712;48.752;11.348;2023-06-19T12:40:12;97359.44;;;29.54;57.82
70304;BME280;57712;48.752;11.348;2023-06-19T12:42:38;97368.44;;;28.84;58.41
70304;BME280;57712;48.752;11.348;2023-06-19T12:45:05;97368.78;;;28.81;58.06
70304;BME280;57712;48.752;11.348;2023-06-19T12:47:32;97361.00;;;29.42;60.36
70304;BME280;57712;48.752;11.348;2023-06-19T12:49:59;97358.44;;;30.01;56.51
70304;BME280;57712;48.752;11.348;2023-06-19T12:52:26;97354.88;;;30.00;56.41
70304;BME280;57712;48.752;11.348;2023-06-19T12:54:53;97358.78;;;30.18;58.01
70304;BME280;57712;48.752;11.348;2023-06-19T12:57:20;97351.38;;;30.07;56.67
70304;BME280;57712;48.752;11.348;2023-06-19T12:59:46;97348.09;;;30.32;57.19
70304;BME280;57712;48.752;11.348;2023-06-19T13:02:13;97359.41;;;30.24;56.82